Terminal Aerodrome Forecast
Issued by NWS

Home | Current Version | Previous Version | Text Only | Print | Product List | Glossary On
Versions: 1 2 3 4 5 6 7 8 9 10 11 12 13 14 15 16 17 18 19 20 21 22 23 24 25 26
000
FTUS41 KBOX 271120
TAFACK
TAF
KACK 271120Z 2712/2812 35006KT P6SM -DZ BKN025
     FM271300 34005KT P6SM BKN025
     FM272000 03005KT P6SM SCT025
     FM280300 08006KT P6SM BKN060
     FM281100 VRB03KT P6SM BKN040=

USA.gov is the U.S. government's official web portal to all federal, state and local government web resources and services.